createdAt,value
2022-11-28T00:03:58.088Z,89.12
2022-11-28T00:14:05.757Z,89.15
2022-11-28T00:24:12.908Z,89.08
2022-11-28T00:34:22.938Z,88.92
2022-11-28T00:44:30.026Z,88.71
2022-11-28T00:54:37.456Z,88.62
2022-11-28T01:04:43.666Z,88.66
2022-11-28T01:14:49.069Z,88.62
2022-11-28T01:24:56.391Z,88.49
2022-11-28T01:35:03.277Z,88.44
2022-11-28T01:45:17.856Z,88.38
2022-11-28T01:55:25.413Z,88.28
2022-11-28T02:05:32.790Z,88.30
2022-11-28T02:15:43.657Z,88.42
2022-11-28T02:26:23.441Z,88.36
2022-11-28T02:36:34.583Z,88.36
2022-11-28T02:46:39.290Z,88.41
2022-11-28T02:56:50.471Z,88.42
2022-11-28T03:06:56.104Z,88.33
2022-11-28T03:17:02.709Z,88.39
2022-11-28T03:27:10.705Z,88.41
2022-11-28T03:37:22.273Z,88.38
2022-11-28T03:47:32.491Z,88.42
2022-11-28T03:57:44.922Z,88.29
2022-11-28T04:07:59.482Z,88.34
2022-11-28T04:18:12.234Z,88.38
2022-11-28T04:28:22.122Z,88.57
2022-11-28T04:38:32.617Z,88.54
2022-11-28T04:48:41.316Z,88.59
2022-11-28T04:58:50.879Z,88.73
2022-11-28T05:08:59.037Z,88.62
2022-11-28T05:19:06.425Z,88.54
2022-11-28T05:29:13.959Z,88.80
2022-11-28T05:39:21.037Z,88.80
2022-11-28T05:49:29.123Z,88.71
2022-11-28T05:59:37.217Z,88.32
2022-11-28T06:09:44.710Z,88.68
2022-11-28T06:19:51.276Z,88.64
2022-11-28T06:29:58.569Z,88.49
2022-11-28T06:40:07.084Z,88.57
2022-11-28T06:50:11.942Z,88.69
2022-11-28T07:00:18.932Z,88.64
2022-11-28T07:10:27.205Z,88.69
2022-11-28T07:20:34.453Z,88.68
2022-11-28T07:30:42.076Z,88.67
2022-11-28T07:40:50.633Z,88.78
2022-11-28T07:50:58.034Z,88.70
2022-11-28T08:01:09.910Z,88.51
2022-11-28T08:11:17.541Z,88.56
2022-11-28T08:21:28.103Z,88.73
2022-11-28T08:31:37.274Z,88.68
2022-11-28T08:41:45.089Z,88.57
2022-11-28T08:51:52.771Z,88.51
2022-11-28T09:02:00.234Z,88.61
2022-11-28T09:12:06.548Z,88.78
2022-11-28T09:22:14.289Z,88.68
2022-11-28T09:32:21.955Z,88.49
2022-11-28T09:42:27.225Z,88.26
2022-11-28T09:52:33.429Z,88.17
2022-11-28T10:02:43.773Z,88.18
2022-11-28T10:12:49.814Z,88.08
2022-11-28T10:22:57.577Z,87.92
2022-11-28T10:33:17.150Z,87.77
2022-11-28T10:43:24.557Z,87.85
2022-11-28T10:53:33.921Z,87.82
2022-11-28T11:03:41.890Z,87.44
2022-11-28T11:14:03.858Z,87.32
2022-11-28T11:24:19.499Z,87.56
2022-11-28T11:34:28.043Z,87.31
2022-11-28T11:44:34.721Z,87.25
2022-11-28T11:54:54.225Z,87.07
2022-11-28T12:05:00.398Z,87.14
2022-11-28T12:15:14.596Z,87.20
2022-11-28T12:25:19.548Z,86.80
2022-11-28T12:35:25.685Z,86.84
2022-11-28T12:45:36.849Z,86.97
2022-11-28T12:55:50.915Z,86.85
2022-11-28T13:06:01.716Z,86.78
2022-11-28T13:16:06.806Z,86.57
2022-11-28T13:26:16.171Z,86.41
2022-11-28T13:46:57.049Z,86.26
2022-11-28T13:57:06.188Z,85.95
2022-11-28T14:07:21.145Z,86.06
2022-11-28T14:17:34.373Z,86.12
2022-11-28T14:27:48.863Z,86.13
2022-11-28T14:37:57.908Z,86.05
2022-11-28T14:48:09.415Z,86.06
2022-11-28T14:58:17.756Z,86.10
2022-11-28T15:08:53.087Z,86.01
2022-11-28T15:19:06.328Z,85.92
2022-11-28T15:29:19.259Z,86.14
2022-11-28T15:39:31.855Z,86.27
2022-11-28T15:49:40.865Z,86.36
2022-11-28T15:59:48.494Z,86.44
2022-11-28T16:09:58.184Z,86.68
2022-11-28T16:20:03.518Z,86.72
2022-11-28T16:30:30.034Z,86.91
2022-11-28T16:40:38.259Z,87.04
2022-11-28T16:50:43.398Z,86.95
2022-11-28T17:00:51.973Z,87.09
2022-11-28T17:10:59.446Z,87.18
2022-11-28T17:21:07.069Z,87.25
2022-11-28T17:31:12.789Z,87.24
2022-11-28T17:41:19.136Z,87.43
2022-11-28T17:51:26.502Z,87.43
2022-11-28T18:01:34.150Z,87.22
2022-11-28T18:11:41.019Z,87.37
2022-11-28T18:21:48.130Z,87.50
2022-11-28T18:31:56.317Z,87.61
2022-11-28T18:42:03.486Z,87.68
2022-11-28T18:52:10.182Z,87.58
2022-11-28T19:02:17.556Z,87.58
2022-11-28T19:12:24.105Z,87.89
2022-11-28T19:22:31.409Z,87.77
2022-11-28T19:32:38.590Z,87.79
2022-11-28T19:52:52.575Z,87.95
2022-11-28T20:02:58.631Z,88.05
2022-11-28T20:13:06.800Z,88.03
2022-11-28T20:23:14.013Z,87.98
2022-11-28T20:33:21.246Z,88.10
2022-11-28T20:43:29.869Z,88.20
2022-11-28T20:53:37.004Z,88.21
2022-11-28T21:03:44.455Z,88.15
2022-11-28T21:13:52.973Z,88.11
2022-11-28T21:24:02.648Z,88.23
2022-11-28T21:34:13.196Z,88.44
2022-11-28T21:44:20.772Z,88.47
2022-11-28T21:54:28.202Z,88.35
2022-11-28T22:04:35.560Z,88.60
2022-11-28T22:14:42.910Z,88.54
2022-11-28T22:24:50.328Z,88.55
2022-11-28T22:34:58.045Z,88.64
2022-11-28T22:45:04.217Z,88.74
2022-11-28T22:55:09.589Z,88.67
2022-11-28T23:05:16.844Z,88.67
2022-11-28T23:25:30.941Z,88.67
2022-11-28T23:35:38.087Z,88.59
2022-11-28T23:45:45.500Z,88.86
2022-11-28T23:55:52.903Z,88.63
